DAL weather

Dallas Love Field
Dallas, Texas, United States

Public forecast

Using degrees Fahrenheit for public forecast. Weather courtesy of forecast.io.

Current aviation weather report (METAR) for Dallas Love Field

Retrieved 2019/11/12 11:53 UTC (24 minutes ago):

KDAL 121153Z 36012KT 10SM BKN300 M05/M11 A3064 RMK AO2 SLP380 T10501111 11011 21050 53013

Aviation forecast (TAF) for Dallas Love Field

Retrieved 2019/11/12 12:33 UTC (0 seconds ago):

TAF KDAL 121130Z 1212/1312 35015G25KT P6SM SCT300 FM121600 35011KT P6SM FEW300 FM130400 14004KT P6SM SKC